createdAt,value
2023-05-19T00:01:15.353Z,102760.38
2023-05-19T00:03:53.690Z,102769.28
2023-05-19T00:06:25.198Z,102759.63
2023-05-19T00:09:02.500Z,102760.53
2023-05-19T00:11:29.819Z,102752.63
2023-05-19T00:13:58.431Z,102757.94
2023-05-19T00:16:26.513Z,102756.25
2023-05-19T00:18:54.279Z,102753.66
2023-05-19T00:21:21.288Z,102757.22
2023-05-19T00:23:47.906Z,102759.00
2023-05-19T00:26:15.814Z,102754.59
2023-05-19T00:28:42.317Z,102761.66
2023-05-19T00:31:08.975Z,102754.66
2023-05-19T00:33:35.572Z,102757.31
2023-05-19T00:36:06.002Z,102761.75
2023-05-19T00:38:34.365Z,102765.31
2023-05-19T00:41:02.006Z,102769.75
2023-05-19T00:43:30.297Z,102766.28
2023-05-19T00:45:57.599Z,102771.63
2023-05-19T00:48:25.556Z,102761.13
2023-05-19T00:50:54.728Z,102763.75
2023-05-19T00:53:21.524Z,102761.19
2023-05-19T00:55:48.164Z,102755.91
2023-05-19T00:58:15.409Z,102750.66
2023-05-19T01:00:43.319Z,102751.59
2023-05-19T01:03:13.298Z,102750.72
2023-05-19T01:05:41.758Z,102757.75
2023-05-19T01:08:09.056Z,102755.19
2023-05-19T01:10:35.689Z,102747.31
2023-05-19T01:13:04.445Z,102751.72
2023-05-19T01:15:33.979Z,102745.53
2023-05-19T01:18:07.482Z,102745.59
2023-05-19T01:20:48.177Z,102744.72
2023-05-19T01:23:36.579Z,102743.00
2023-05-19T01:26:03.181Z,102742.16
2023-05-19T01:28:53.769Z,102743.06
2023-05-19T01:31:23.888Z,102743.97
2023-05-19T01:33:52.451Z,102738.75
2023-05-19T01:36:19.875Z,102741.41
2023-05-19T01:38:48.283Z,102738.81
2023-05-19T01:41:14.758Z,102741.50
2023-05-19T01:43:41.531Z,102741.47
2023-05-19T01:46:08.661Z,102735.38
2023-05-19T01:48:35.659Z,102736.22
2023-05-19T01:51:02.244Z,102736.25
2023-05-19T01:53:28.799Z,102730.16
2023-05-19T01:55:56.609Z,102733.69
2023-05-19T01:58:47.358Z,102723.16
2023-05-19T02:01:20.214Z,102736.34
2023-05-19T02:03:59.482Z,102722.34
2023-05-19T02:06:47.936Z,102721.47
2023-05-19T02:09:25.865Z,102717.97
2023-05-19T02:11:55.826Z,102730.28
2023-05-19T02:14:27.651Z,102720.66
2023-05-19T02:16:55.113Z,102718.91
2023-05-19T02:19:24.199Z,102725.06
2023-05-19T02:21:51.032Z,102718.06
2023-05-19T02:24:18.016Z,102716.31
2023-05-19T02:26:44.551Z,102716.34
2023-05-19T02:29:11.168Z,102714.59
2023-05-19T02:31:38.337Z,102714.59
2023-05-19T02:34:05.001Z,102713.72
2023-05-19T02:36:35.087Z,102714.63
2023-05-19T02:39:04.305Z,102712.88
2023-05-19T02:41:31.472Z,102718.16
2023-05-19T02:43:58.081Z,102719.06
2023-05-19T02:46:24.691Z,102711.16
2023-05-19T02:48:52.336Z,102711.16
2023-05-19T02:51:18.896Z,102708.56
2023-05-19T02:53:45.447Z,102705.94
2023-05-19T02:56:12.018Z,102703.31
2023-05-19T02:58:39.451Z,102701.56
2023-05-19T03:01:06.081Z,102708.59
2023-05-19T03:03:32.896Z,102701.56
2023-05-19T03:05:59.494Z,102705.09
2023-05-19T03:08:26.044Z,102698.09
2023-05-19T03:10:52.673Z,102700.75
2023-05-19T03:13:19.467Z,102699.91
2023-05-19T03:15:46.161Z,102702.53
2023-05-19T03:18:12.864Z,102698.19
2023-05-19T03:20:41.692Z,102694.69
2023-05-19T03:23:09.088Z,102692.06
2023-05-19T03:25:35.692Z,102690.34
2023-05-19T03:28:02.227Z,102691.22
2023-05-19T03:30:28.799Z,102693.03
2023-05-19T03:32:55.419Z,102693.91
2023-05-19T03:35:22.116Z,102700.91
2023-05-19T03:37:48.753Z,102694.81
2023-05-19T03:40:15.770Z,102690.41
2023-05-19T03:42:42.346Z,102693.91
2023-05-19T03:45:09.176Z,102688.66
2023-05-19T03:47:35.854Z,102693.06
2023-05-19T03:50:02.508Z,102695.69
2023-05-19T03:52:29.056Z,102693.91
2023-05-19T03:54:57.568Z,102701.78
2023-05-19T03:57:23.955Z,102688.63
2023-05-19T03:59:50.653Z,102693.88
2023-05-19T04:02:17.226Z,102693.88
2023-05-19T04:04:43.954Z,102690.38
2023-05-19T04:07:10.479Z,102683.34
2023-05-19T04:09:37.687Z,102686.84
2023-05-19T04:12:04.765Z,102692.97
2023-05-19T04:14:31.366Z,102685.09
2023-05-19T04:16:58.137Z,102704.34
2023-05-19T04:19:24.959Z,102697.34
2023-05-19T04:21:51.920Z,102699.09
2023-05-19T04:24:18.457Z,102695.56
2023-05-19T04:26:47.070Z,102707.84
2023-05-19T04:29:13.956Z,102705.19
2023-05-19T04:31:41.201Z,102706.94
2023-05-19T04:34:10.724Z,102705.19
2023-05-19T04:36:37.821Z,102699.00
2023-05-19T04:39:07.907Z,102706.91
2023-05-19T04:41:34.966Z,102707.75
2023-05-19T04:44:01.566Z,102706.84
2023-05-19T04:46:30.344Z,102710.34
2023-05-19T04:48:57.244Z,102707.69
2023-05-19T04:51:30.348Z,102717.31
2023-05-19T04:53:59.677Z,102713.78
2023-05-19T04:56:27.365Z,102709.38
2023-05-19T04:58:54.045Z,102721.63
2023-05-19T05:01:22.602Z,102720.72
2023-05-19T05:03:49.327Z,102712.78
2023-05-19T05:06:16.319Z,102712.78
2023-05-19T05:08:42.916Z,102725.06
2023-05-19T05:11:09.953Z,102728.56
2023-05-19T05:13:36.821Z,102723.28
2023-05-19T05:16:06.613Z,102714.47
2023-05-19T05:18:34.407Z,102718.81
2023-05-19T05:21:01.472Z,102716.97
2023-05-19T05:23:28.335Z,102720.44
2023-05-19T05:25:55.145Z,102716.81
2023-05-19T05:28:21.788Z,102720.31
2023-05-19T05:30:49.101Z,102722.88
2023-05-19T05:33:16.451Z,102728.97
2023-05-19T05:35:43.169Z,102732.47
2023-05-19T05:38:11.490Z,102735.03
2023-05-19T05:40:38.045Z,102719.13
2023-05-19T05:43:04.604Z,102728.75
2023-05-19T05:45:31.411Z,102732.16
2023-05-19T05:47:58.398Z,102723.28
2023-05-19T05:50:25.397Z,102728.41
2023-05-19T05:52:53.815Z,102723.03
2023-05-19T05:55:20.464Z,102720.25
2023-05-19T05:57:48.830Z,102717.50
2023-05-19T06:00:15.963Z,102717.28
2023-05-19T06:02:49.397Z,102717.97
2023-05-19T06:05:16.623Z,102719.59
2023-05-19T06:07:43.753Z,102709.72
2023-05-19T06:10:10.403Z,102716.56
2023-05-19T06:12:40.594Z,102717.09
2023-05-19T06:15:08.178Z,102722.25
2023-05-19T06:17:37.561Z,102719.59
2023-05-19T06:20:08.656Z,102715.97
2023-05-19T06:22:35.320Z,102719.41
2023-05-19T06:25:01.914Z,102725.38
2023-05-19T06:27:28.538Z,102714.66
2023-05-19T06:29:55.136Z,102713.72
2023-05-19T06:32:21.788Z,102719.84
2023-05-19T06:34:54.337Z,102722.19
2023-05-19T06:37:23.051Z,102718.53
2023-05-19T06:39:52.808Z,102722.00
2023-05-19T06:42:22.977Z,102723.53
2023-05-19T06:44:53.296Z,102726.16
2023-05-19T06:47:20.005Z,102714.28
2023-05-19T06:49:46.868Z,102713.03
2023-05-19T06:52:13.948Z,102723.22
2023-05-19T06:54:40.478Z,102716.94
2023-05-19T06:57:07.171Z,102721.91
2023-05-19T06:59:33.835Z,102717.56
2023-05-19T07:02:02.340Z,102723.63
2023-05-19T07:04:29.033Z,102716.28
2023-05-19T07:06:55.719Z,102716.97
2023-05-19T07:09:22.282Z,102717.25
2023-05-19T07:11:48.799Z,102717.13
2023-05-19T07:14:15.562Z,102714.16
2023-05-19T07:16:42.267Z,102713.28
2023-05-19T07:19:09.093Z,102716.53
2023-05-19T07:21:35.845Z,102706.47
2023-05-19T07:24:02.408Z,102710.75
2023-05-19T07:26:29.191Z,102704.06
2023-05-19T07:28:56.804Z,102706.44
2023-05-19T07:31:23.516Z,102701.66
2023-05-19T07:33:51.575Z,102696.81
2023-05-19T07:36:19.754Z,102706.25
2023-05-19T07:38:46.766Z,102703.59
2023-05-19T07:41:13.368Z,102699.78
2023-05-19T07:43:40.155Z,102700.25
2023-05-19T07:46:07.015Z,102705.16
2023-05-19T07:48:33.674Z,102699.09
2023-05-19T07:51:00.747Z,102704.16
2023-05-19T07:53:28.023Z,102699.72
2023-05-19T07:55:55.462Z,102689.28
2023-05-19T07:58:23.021Z,102698.66
2023-05-19T08:00:49.643Z,102690.84
2023-05-19T08:03:18.342Z,102697.41
2023-05-19T08:05:45.605Z,102689.16
2023-05-19T08:08:12.853Z,102693.00
2023-05-19T08:10:39.689Z,102694.47
2023-05-19T08:13:06.306Z,102690.63
2023-05-19T08:15:32.981Z,102691.78
2023-05-19T08:17:59.610Z,102678.94
2023-05-19T08:20:26.249Z,102690.38
2023-05-19T08:22:52.908Z,102680.06
2023-05-19T08:25:20.063Z,102677.53
2023-05-19T08:27:46.627Z,102680.00
2023-05-19T08:30:13.486Z,102679.72
2023-05-19T08:32:40.425Z,102673.34
2023-05-19T08:35:07.695Z,102663.69
2023-05-19T08:37:37.102Z,102669.78
2023-05-19T08:40:05.476Z,102662.47
2023-05-19T08:42:33.221Z,102647.66
2023-05-19T08:45:01.233Z,102654.81
2023-05-19T08:47:28.649Z,102647.25
2023-05-19T08:50:07.761Z,102646.81
2023-05-19T08:52:57.835Z,102642.31
2023-05-19T08:55:29.805Z,102635.41
2023-05-19T08:57:56.828Z,102633.06
2023-05-19T09:00:23.813Z,102632.81
2023-05-19T09:03:00.777Z,102626.75
2023-05-19T09:05:33.360Z,102626.78
2023-05-19T09:08:02.938Z,102630.72
2023-05-19T09:10:29.543Z,102625.50
2023-05-19T09:12:56.425Z,102632.94
2023-05-19T09:15:26.915Z,102630.22
2023-05-19T09:18:07.070Z,102619.38
2023-05-19T09:20:37.274Z,102623.13
2023-05-19T09:23:03.949Z,102625.72
2023-05-19T09:25:30.531Z,102629.97
2023-05-19T09:27:57.233Z,102624.50
2023-05-19T09:30:24.121Z,102624.53
2023-05-19T09:32:51.395Z,102627.19
2023-05-19T09:35:20.544Z,102629.53
2023-05-19T09:37:47.292Z,102626.78
2023-05-19T09:40:15.684Z,102621.66
2023-05-19T09:42:43.961Z,102613.16
2023-05-19T09:45:11.386Z,102621.09
2023-05-19T09:47:40.351Z,102620.03
2023-05-19T09:50:12.005Z,102620.25
2023-05-19T09:52:39.251Z,102616.16
2023-05-19T09:55:06.776Z,102604.31
2023-05-19T09:57:37.892Z,102612.78
2023-05-19T10:00:12.075Z,102610.88
2023-05-19T10:02:41.279Z,102600.31
2023-05-19T10:05:09.715Z,102604.97
2023-05-19T10:07:37.714Z,102601.91
2023-05-19T10:10:04.758Z,102608.81
2023-05-19T10:12:31.967Z,102606.22
2023-05-19T10:14:59.351Z,102606.13
2023-05-19T10:17:26.309Z,102601.88
2023-05-19T10:19:54.711Z,102607.16
2023-05-19T10:22:21.762Z,102600.75
2023-05-19T10:24:52.027Z,102603.94
2023-05-19T10:27:18.980Z,102602.91
2023-05-19T10:29:49.336Z,102605.34
2023-05-19T10:32:19.718Z,102597.53
2023-05-19T10:35:33.084Z,102594.66
2023-05-19T10:38:17.945Z,102596.22
2023-05-19T10:41:05.850Z,102594.69
2023-05-19T10:43:42.468Z,102593.69
2023-05-19T10:46:09.379Z,102595.41
2023-05-19T10:48:38.780Z,102593.34
2023-05-19T10:51:06.258Z,102575.09
2023-05-19T10:53:33.394Z,102588.44
2023-05-19T10:56:04.661Z,102582.09
2023-05-19T10:58:46.453Z,102585.44
2023-05-19T11:01:14.397Z,102584.09
2023-05-19T11:03:57.079Z,102572.66
2023-05-19T11:06:28.588Z,102566.38
2023-05-19T11:09:01.010Z,102565.75
2023-05-19T11:11:44.517Z,102571.63
2023-05-19T11:14:13.085Z,102561.31
2023-05-19T11:16:41.874Z,102559.22
2023-05-19T11:19:09.160Z,102565.97
2023-05-19T11:21:52.756Z,102561.03
2023-05-19T11:24:35.322Z,102570.16
2023-05-19T11:27:40.538Z,102565.84
2023-05-19T11:30:14.857Z,102564.41
2023-05-19T11:32:44.466Z,102562.38
2023-05-19T11:35:11.614Z,102548.22
2023-05-19T11:37:40.388Z,102563.41
2023-05-19T11:40:07.736Z,102548.91
2023-05-19T11:42:35.212Z,102547.88
2023-05-19T11:45:02.222Z,102557.84
2023-05-19T11:47:29.851Z,102562.03
2023-05-19T11:49:57.419Z,102556.19
2023-05-19T11:52:24.687Z,102551.00
2023-05-19T11:54:51.581Z,102547.00
2023-05-19T11:57:18.244Z,102548.44
2023-05-19T11:59:46.078Z,102549.97
2023-05-19T12:02:13.871Z,102539.25
2023-05-19T12:04:40.994Z,102531.56
2023-05-19T12:07:07.621Z,102534.63
2023-05-19T12:09:34.410Z,102534.53
2023-05-19T12:12:01.118Z,102525.06
2023-05-19T12:14:30.023Z,102521.13
2023-05-19T12:16:56.870Z,102528.06
2023-05-19T12:19:25.992Z,102536.09
2023-05-19T12:21:53.590Z,102527.97
2023-05-19T12:24:20.685Z,102524.69
2023-05-19T12:26:47.270Z,102525.50
2023-05-19T12:29:14.010Z,102519.50
2023-05-19T12:31:40.624Z,102519.94
2023-05-19T12:34:07.233Z,102509.94
2023-05-19T12:36:34.910Z,102530.13
2023-05-19T12:39:01.827Z,102529.22
2023-05-19T12:41:29.307Z,102519.28
2023-05-19T12:43:56.265Z,102528.88
2023-05-19T12:46:23.150Z,102512.69
2023-05-19T12:48:49.844Z,102514.56
2023-05-19T12:51:18.025Z,102516.47
2023-05-19T12:53:45.788Z,102515.06
2023-05-19T12:56:14.552Z,102513.22
2023-05-19T12:58:42.227Z,102496.88
2023-05-19T13:01:15.398Z,102509.88
2023-05-19T13:03:42.902Z,102504.31
2023-05-19T13:06:10.399Z,102498.28
2023-05-19T13:08:37.799Z,102499.81
2023-05-19T13:11:04.373Z,102494.44
2023-05-19T13:13:31.170Z,102493.41
2023-05-19T13:15:57.835Z,102491.59
2023-05-19T13:18:24.525Z,102488.63
2023-05-19T13:20:52.857Z,102486.34
2023-05-19T13:23:19.650Z,102487.78
2023-05-19T13:25:46.395Z,102492.63
2023-05-19T13:28:13.026Z,102493.28
2023-05-19T13:30:41.827Z,102486.69
2023-05-19T13:33:08.664Z,102479.38
2023-05-19T13:35:38.421Z,102479.97
2023-05-19T13:38:06.136Z,102487.69
2023-05-19T13:40:35.621Z,102479.63
2023-05-19T13:43:03.260Z,102468.97
2023-05-19T13:45:29.909Z,102476.59
2023-05-19T13:47:57.061Z,102463.03
2023-05-19T13:50:23.731Z,102461.13
2023-05-19T13:52:50.276Z,102459.53
2023-05-19T13:55:17.000Z,102469.31
2023-05-19T13:57:44.237Z,102474.41
2023-05-19T14:00:11.485Z,102461.88
2023-05-19T14:02:38.258Z,102457.97
2023-05-19T14:05:06.137Z,102474.91
2023-05-19T14:07:34.730Z,102463.13
2023-05-19T14:10:02.396Z,102462.41
2023-05-19T14:12:38.127Z,102470.44
2023-05-19T14:15:14.148Z,102465.06
2023-05-19T14:17:40.901Z,102466.66
2023-05-19T14:20:08.486Z,102460.16
2023-05-19T14:22:35.225Z,102464.56
2023-05-19T14:25:02.452Z,102467.50
2023-05-19T14:27:29.045Z,102460.03
2023-05-19T14:29:55.955Z,102444.66
2023-05-19T14:32:22.556Z,102451.81
2023-05-19T14:34:52.850Z,102447.25
2023-05-19T14:37:20.205Z,102457.94
2023-05-19T14:39:46.810Z,102453.06
2023-05-19T14:42:13.472Z,102449.22
2023-05-19T14:44:40.100Z,102449.75
2023-05-19T14:47:07.556Z,102453.31
2023-05-19T14:49:34.511Z,102458.34
2023-05-19T14:52:01.287Z,102451.88
2023-05-19T14:54:28.148Z,102448.03
2023-05-19T14:56:54.855Z,102445.28
2023-05-19T14:59:21.807Z,102433.41
2023-05-19T15:01:48.457Z,102440.13
2023-05-19T15:04:15.310Z,102440.44
2023-05-19T15:06:41.894Z,102430.72
2023-05-19T15:09:08.486Z,102431.09
2023-05-19T15:11:35.059Z,102430.69
2023-05-19T15:14:01.684Z,102427.13
2023-05-19T15:16:28.429Z,102424.56
2023-05-19T15:18:55.140Z,102423.53
2023-05-19T15:21:21.656Z,102421.16
2023-05-19T15:23:48.271Z,102427.44
2023-05-19T15:26:14.944Z,102430.28
2023-05-19T15:28:41.716Z,102429.50
2023-05-19T15:31:08.603Z,102419.16
2023-05-19T15:33:35.245Z,102417.09
2023-05-19T15:36:01.842Z,102420.56
2023-05-19T15:38:30.099Z,102415.41
2023-05-19T15:40:57.229Z,102411.56
2023-05-19T15:43:23.897Z,102412.56
2023-05-19T15:45:52.298Z,102414.44
2023-05-19T15:48:19.204Z,102420.50
2023-05-19T15:50:45.959Z,102417.03
2023-05-19T15:53:12.647Z,102413.44
2023-05-19T15:55:39.251Z,102418.84
2023-05-19T15:58:05.834Z,102414.00
2023-05-19T16:00:32.690Z,102412.59
2023-05-19T16:02:59.819Z,102415.94
2023-05-19T16:05:26.586Z,102406.56
2023-05-19T16:07:53.126Z,102408.31
2023-05-19T16:10:19.786Z,102407.13
2023-05-19T16:12:46.488Z,102405.00
2023-05-19T16:15:13.079Z,102404.84
2023-05-19T16:17:40.035Z,102399.38
2023-05-19T16:20:07.356Z,102396.31
2023-05-19T16:22:34.086Z,102396.38
2023-05-19T16:25:00.731Z,102396.81
2023-05-19T16:27:27.710Z,102387.28
2023-05-19T16:29:55.129Z,102396.97
2023-05-19T16:32:21.694Z,102389.00
2023-05-19T16:34:48.247Z,102385.56
2023-05-19T16:37:14.833Z,102387.63
2023-05-19T16:39:43.750Z,102392.44
2023-05-19T16:42:10.393Z,102385.59
2023-05-19T16:44:36.976Z,102383.00
2023-05-19T16:47:04.193Z,102385.38
2023-05-19T16:49:31.077Z,102385.53
2023-05-19T16:51:57.644Z,102387.91
2023-05-19T16:54:24.679Z,102398.47
2023-05-19T16:56:52.255Z,102393.97
2023-05-19T16:59:18.817Z,102395.13
2023-05-19T17:01:45.499Z,102391.63
2023-05-19T17:04:12.154Z,102395.88
2023-05-19T17:06:38.722Z,102400.25
2023-05-19T17:09:05.305Z,102388.59
2023-05-19T17:11:31.967Z,102396.53
2023-05-19T17:13:58.709Z,102392.84
2023-05-19T17:16:25.362Z,102394.41
2023-05-19T17:18:52.004Z,102402.47
2023-05-19T17:21:18.752Z,102389.72
2023-05-19T17:23:45.579Z,102402.53
2023-05-19T17:26:12.124Z,102395.78
2023-05-19T17:28:38.721Z,102395.88
2023-05-19T17:31:14.970Z,102394.38
2023-05-19T17:33:41.590Z,102392.31
2023-05-19T17:36:08.539Z,102392.84
2023-05-19T17:38:35.793Z,102395.03
2023-05-19T17:41:02.923Z,102403.41
2023-05-19T17:43:29.615Z,102396.97
2023-05-19T17:45:57.214Z,102398.97
2023-05-19T17:48:25.925Z,102404.22
2023-05-19T17:50:52.506Z,102411.97
2023-05-19T17:53:19.411Z,102413.34
2023-05-19T17:55:50.732Z,102419.13
2023-05-19T17:58:18.708Z,102421.56
2023-05-19T18:00:45.675Z,102414.94
2023-05-19T18:03:12.557Z,102422.13
2023-05-19T18:05:40.165Z,102411.09
2023-05-19T18:08:09.234Z,102420.13
2023-05-19T18:10:37.388Z,102422.88
2023-05-19T18:13:04.714Z,102427.78
2023-05-19T18:15:31.328Z,102421.88
2023-05-19T18:17:58.018Z,102429.22
2023-05-19T18:20:24.714Z,102431.91
2023-05-19T18:22:51.428Z,102435.84
2023-05-19T18:25:18.622Z,102433.59
2023-05-19T18:27:45.405Z,102431.56
2023-05-19T18:30:12.268Z,102432.88
2023-05-19T18:32:38.928Z,102432.84
2023-05-19T18:35:06.060Z,102438.94
2023-05-19T18:37:32.681Z,102438.84
2023-05-19T18:40:00.508Z,102435.41
2023-05-19T18:42:27.152Z,102443.53
2023-05-19T18:44:53.925Z,102451.06
2023-05-19T18:47:22.740Z,102441.44
2023-05-19T18:49:49.998Z,102455.75
2023-05-19T18:52:16.590Z,102447.41
2023-05-19T18:54:45.894Z,102455.09
2023-05-19T18:57:12.781Z,102461.41
2023-05-19T18:59:39.301Z,102455.41
2023-05-19T19:02:06.595Z,102464.16
2023-05-19T19:04:33.636Z,102464.53
2023-05-19T19:07:00.354Z,102465.25
2023-05-19T19:09:27.239Z,102461.06
2023-05-19T19:11:53.786Z,102463.16
2023-05-19T19:14:20.656Z,102465.78
2023-05-19T19:16:47.270Z,102467.34
2023-05-19T19:19:13.955Z,102469.00
2023-05-19T19:21:40.631Z,102465.56
2023-05-19T19:24:07.186Z,102473.00
2023-05-19T19:26:33.802Z,102480.09
2023-05-19T19:29:00.412Z,102479.72
2023-05-19T19:31:28.805Z,102475.09
2023-05-19T19:34:02.984Z,102485.00
2023-05-19T19:36:29.792Z,102484.03
2023-05-19T19:38:56.387Z,102490.25
2023-05-19T19:41:23.220Z,102490.38
2023-05-19T19:43:50.952Z,102494.78
2023-05-19T19:46:17.600Z,102496.50
2023-05-19T19:48:44.265Z,102498.81
2023-05-19T19:51:10.926Z,102489.00
2023-05-19T19:53:37.469Z,102495.63
2023-05-19T19:56:05.016Z,102500.44
2023-05-19T19:58:31.765Z,102496.88
2023-05-19T20:01:08.300Z,102498.69
2023-05-19T20:03:35.558Z,102498.09
2023-05-19T20:06:02.306Z,102501.44
2023-05-19T20:08:28.936Z,102493.03
2023-05-19T20:10:55.700Z,102504.47
2023-05-19T20:13:22.278Z,102505.69
2023-05-19T20:15:48.913Z,102507.41
2023-05-19T20:18:15.756Z,102507.66
2023-05-19T20:20:42.487Z,102519.56
2023-05-19T20:23:09.023Z,102516.84
2023-05-19T20:25:58.473Z,102516.91
2023-05-19T20:28:29.265Z,102519.03
2023-05-19T20:30:55.955Z,102527.41
2023-05-19T20:33:22.541Z,102522.28
2023-05-19T20:35:49.094Z,102524.88
2023-05-19T20:38:15.667Z,102522.00
2023-05-19T20:40:42.216Z,102521.03
2023-05-19T20:43:08.771Z,102526.59
2023-05-19T20:45:35.726Z,102521.38
2023-05-19T20:48:03.743Z,102520.72
2023-05-19T20:50:30.701Z,102529.22
2023-05-19T20:52:57.365Z,102527.59
2023-05-19T20:55:23.944Z,102524.59
2023-05-19T20:57:50.726Z,102518.50
2023-05-19T21:00:17.575Z,102513.84
2023-05-19T21:02:44.392Z,102517.81
2023-05-19T21:05:11.319Z,102520.78
2023-05-19T21:07:37.910Z,102522.41
2023-05-19T21:10:04.887Z,102519.88
2023-05-19T21:12:34.072Z,102515.91
2023-05-19T21:15:01.560Z,102524.72
2023-05-19T21:17:28.252Z,102527.53
2023-05-19T21:19:58.087Z,102526.22
2023-05-19T21:22:26.104Z,102535.00
2023-05-19T21:24:53.611Z,102529.41
2023-05-19T21:27:23.159Z,102525.59
2023-05-19T21:29:54.031Z,102522.84
2023-05-19T21:32:21.211Z,102528.50
2023-05-19T21:34:47.789Z,102526.56
2023-05-19T21:37:16.288Z,102525.69
2023-05-19T21:39:43.281Z,102544.56
2023-05-19T21:42:09.825Z,102535.03
2023-05-19T21:44:36.446Z,102538.53
2023-05-19T21:47:03.062Z,102533.50
2023-05-19T21:49:29.861Z,102544.97
2023-05-19T21:51:56.444Z,102542.53
2023-05-19T21:54:22.985Z,102541.63
2023-05-19T21:56:49.571Z,102533.22
2023-05-19T21:59:16.101Z,102531.41
2023-05-19T22:01:42.940Z,102536.84
2023-05-19T22:04:10.278Z,102534.13
2023-05-19T22:06:36.907Z,102534.47
2023-05-19T22:09:04.353Z,102533.75
2023-05-19T22:11:30.892Z,102536.19
2023-05-19T22:13:57.442Z,102538.13
2023-05-19T22:16:24.025Z,102533.56
2023-05-19T22:18:50.657Z,102537.25
2023-05-19T22:21:17.289Z,102544.44
2023-05-19T22:23:44.095Z,102543.72
2023-05-19T22:26:10.941Z,102536.59
2023-05-19T22:28:37.491Z,102542.03
2023-05-19T22:31:04.163Z,102543.00
2023-05-19T22:33:30.966Z,102537.84
2023-05-19T22:35:57.849Z,102545.16
2023-05-19T22:38:24.396Z,102542.63
2023-05-19T22:40:51.013Z,102545.38
2023-05-19T22:43:17.618Z,102552.53
2023-05-19T22:45:44.282Z,102553.31
2023-05-19T22:48:11.618Z,102553.59
2023-05-19T22:50:38.362Z,102548.44
2023-05-19T22:53:04.991Z,102553.00
2023-05-19T22:55:32.190Z,102552.97
2023-05-19T22:57:59.058Z,102553.97
2023-05-19T23:00:25.655Z,102550.53
2023-05-19T23:02:52.227Z,102549.63
2023-05-19T23:05:18.836Z,102554.06
2023-05-19T23:07:45.523Z,102553.44
2023-05-19T23:10:12.080Z,102547.34
2023-05-19T23:12:39.992Z,102550.84
2023-05-19T23:15:07.934Z,102543.84
2023-05-19T23:17:34.547Z,102545.72
2023-05-19T23:20:01.205Z,102546.69
2023-05-19T23:22:27.788Z,102546.81
2023-05-19T23:24:54.322Z,102547.13
2023-05-19T23:27:20.851Z,102548.03
2023-05-19T23:29:51.120Z,102537.56
2023-05-19T23:32:17.869Z,102541.22
2023-05-19T23:34:44.512Z,102547.50
2023-05-19T23:37:11.720Z,102542.38
2023-05-19T23:39:38.441Z,102541.53
2023-05-19T23:42:05.812Z,102544.16
2023-05-19T23:44:32.639Z,102543.34
2023-05-19T23:46:59.415Z,102541.59
2023-05-19T23:49:26.003Z,102536.53
2023-05-19T23:51:52.711Z,102544.59
2023-05-19T23:54:19.528Z,102536.66
2023-05-19T23:56:46.171Z,102532.44
2023-05-19T23:59:12.732Z,102534.22
